map of LEEC home
LEEC - Heliport
Location
City:  Sevilla, Andalusia, Spain
Name:El Copero
ICAO:LEEC

Details
Type:Heliport
Latitude:3718'47"N (37.313056)
Longitude:559'56"W (-5.998888)
Variation:1.01W (WMM2015v2 magnetic declination)
0.15 annual change
Helipads:1
Largest:1115 × 164 ft (340 × 50 m), paved

Weather
METAR:LEEC 041400Z 03010KT CAVOK 14/01 Q1028

Related Locations
Nearby:
Farthest:NZLD: 12399 mi / 19954 km
Limestone Downs, WKO, NZ

Find:

   beyond  
but within

Other Information
Maps:
NOTAMs:
Links:
Sources:

  
  • flag of Spain
  • flag of Andalusia
  

Sectional Chart

Flight Planning
at skyvector.com

Satellite Image

Google Maps Satellite view

 

Copyright © 2004-2019 Karl L. Swartz. All rights reserved.
The Great Circle Mapper name and logo are trademarks of the Great Circle Mapper.
All other trademarks mentioned herein belong to their respective owners.
Please see credits for attibutions and further copyright information.

  Follow gcmap on Facebook Follow gcmap on Twitter GCmap on LinkedIn

hCard Microformat

Geo Microformat